Time;durP1;ratioP1;P1;durP2;ratioP2;P2;SDS_P1;SDS_P2;PMS_P1;PMS_P2;Temp;Humidity;BMP_temperature;BMP_pressure;BME280_temperature;BME280_humidity;BME280_pressure;Samples;Min_cycle;Max_cycle;Signal;HPM_P1;HPM_P2
2021/01/24 00:00:47;;;;;;;19.73;18.83;;;3.90;99.90;;;;;;4935315;29;20454;-72
2021/01/24 00:03:13;;;;;;;21.00;20.20;;;3.80;99.90;;;;;;4935284;29;20457;-73
2021/01/24 00:05:42;;;;;;;20.20;19.40;;;3.80;99.90;;;;;;4935141;29;20993;-73
2021/01/24 00:08:08;;;;;;;18.60;17.90;;;3.80;99.90;;;;;;4935166;29;20493;-73
2021/01/24 00:10:35;;;;;;;20.90;20.00;;;3.80;99.90;;;;;;4935037;29;20811;-73
2021/01/24 00:13:01;;;;;;;20.83;19.93;;;3.80;99.90;;;;;;4935399;29;20858;-73
2021/01/24 00:15:27;;;;;;;20.50;19.60;;;3.80;99.90;;;;;;4934958;29;20545;-73
2021/01/24 00:17:53;;;;;;;19.97;18.90;;;3.80;99.90;;;;;;4934800;29;20489;-73
2021/01/24 00:20:19;;;;;;;19.17;18.43;;;3.80;99.90;;;;;;4935059;29;20453;-74
2021/01/24 00:22:46;;;;;;;19.10;18.10;;;3.80;99.90;;;;;;4935027;29;20443;-74
2021/01/24 00:25:12;;;;;;;19.17;18.47;;;3.80;99.90;;;;;;4935218;29;20451;-74
2021/01/24 00:27:39;;;;;;;18.10;17.40;;;3.80;99.90;;;;;;4934812;29;20516;-74
2021/01/24 00:30:07;;;;;;;18.30;17.50;;;3.80;99.90;;;;;;4935147;29;20458;-75
2021/01/24 00:32:34;;;;;;;18.63;17.67;;;3.80;99.90;;;;;;4934976;29;20506;-74
2021/01/24 00:35:00;;;;;;;16.93;16.23;;;3.80;99.90;;;;;;4934886;29;20457;-75
2021/01/24 00:37:26;;;;;;;17.20;16.60;;;3.70;99.90;;;;;;4934942;29;20798;-76
2021/01/24 00:39:53;;;;;;;17.20;16.57;;;3.70;99.90;;;;;;4934800;29;20459;-76
2021/01/24 00:42:19;;;;;;;17.80;17.10;;;3.70;99.90;;;;;;4934749;29;20822;-76
2021/01/24 00:44:45;;;;;;;17.20;16.60;;;3.70;99.90;;;;;;4934484;29;20463;-75
2021/01/24 00:47:13;;;;;;;18.07;17.27;;;3.70;99.90;;;;;;4934371;29;20485;-76
2021/01/24 00:49:40;;;;;;;17.10;16.50;;;3.70;99.90;;;;;;4934526;29;20461;-76
2021/01/24 00:52:06;;;;;;;16.97;16.37;;;3.70;99.90;;;;;;4934424;29;20449;-76
2021/01/24 00:54:32;;;;;;;17.43;16.80;;;3.70;99.90;;;;;;4934531;29;20508;-77
2021/01/24 00:56:59;;;;;;;17.30;16.70;;;3.70;99.90;;;;;;4934332;29;20944;-76
2021/01/24 00:59:25;;;;;;;17.00;16.40;;;3.70;99.90;;;;;;4934310;29;20462;-76
2021/01/24 01:01:52;;;;;;;16.93;16.33;;;3.70;99.90;;;;;;4934206;29;20469;-76
2021/01/24 01:04:18;;;;;;;16.77;16.10;;;3.70;99.90;;;;;;4934394;29;20826;-76
2021/01/24 01:06:44;;;;;;;15.80;15.20;;;3.80;99.90;;;;;;4933947;29;20462;-76
2021/01/24 01:09:10;;;;;;;16.13;15.53;;;3.80;99.90;;;;;;4933608;29;20918;-76
2021/01/24 01:11:36;;;;;;;15.60;15.00;;;3.80;99.90;;;;;;4934098;29;20454;-77
2021/01/24 01:14:04;;;;;;;15.67;14.97;;;3.80;99.90;;;;;;4934192;29;20449;-78
2021/01/24 01:16:30;;;;;;;15.87;15.27;;;3.80;99.90;;;;;;4933781;29;20476;-76
2021/01/24 01:18:56;;;;;;;15.40;14.80;;;3.80;99.90;;;;;;4933308;29;20695;-77
2021/01/24 01:21:22;;;;;;;16.23;15.53;;;3.80;99.90;;;;;;4933055;29;20988;-76
2021/01/24 01:23:48;;;;;;;15.40;14.80;;;3.80;99.90;;;;;;4933361;29;20508;-76
2021/01/24 01:26:15;;;;;;;13.60;13.10;;;3.80;99.90;;;;;;4933102;29;20470;-76
2021/01/24 01:28:41;;;;;;;13.67;13.07;;;3.80;99.90;;;;;;4932636;29;20650;-75
2021/01/24 01:31:08;;;;;;;14.03;13.53;;;3.90;99.90;;;;;;4932965;29;20462;-76
2021/01/24 01:33:34;;;;;;;13.80;13.30;;;3.90;99.90;;;;;;4933488;29;20456;-76
2021/01/24 01:36:01;;;;;;;12.97;12.47;;;3.80;99.90;;;;;;4933209;29;20948;-76
2021/01/24 01:38:27;;;;;;;12.30;11.90;;;3.90;99.90;;;;;;4932778;29;20450;-76
2021/01/24 01:40:53;;;;;;;12.87;12.37;;;3.90;99.90;;;;;;4932984;29;20462;-76
2021/01/24 01:43:19;;;;;;;11.70;11.30;;;4.00;99.90;;;;;;4932941;29;20984;-76
2021/01/24 01:45:45;;;;;;;11.80;11.40;;;3.90;99.90;;;;;;4932883;29;20943;-75
2021/01/24 01:48:13;;;;;;;12.00;11.50;;;3.90;99.90;;;;;;4932470;29;20494;-76
2021/01/24 01:50:39;;;;;;;10.63;10.23;;;4.00;99.90;;;;;;4932756;29;20857;-76
2021/01/24 01:53:05;;;;;;;12.17;11.67;;;3.90;99.90;;;;;;4932881;29;20469;-76
2021/01/24 01:55:32;;;;;;;11.80;11.30;;;3.90;99.90;;;;;;4932732;29;20500;-76
2021/01/24 01:57:58;;;;;;;11.00;10.60;;;3.90;99.90;;;;;;4932467;29;20970;-77
2021/01/24 02:00:24;;;;;;;11.27;10.77;;;4.00;99.90;;;;;;4932669;29;20867;-78
2021/01/24 02:03:33;;;;;;;10.73;10.33;;;4.00;99.90;;;;;;4932468;29;20876;-78
2021/01/24 02:06:09;;;;;;;10.10;9.70;;;4.00;99.90;;;;;;4910217;29;20983;-78
2021/01/24 02:08:42;;;;;;;10.57;10.13;;;4.00;99.90;;;;;;4932332;29;20493;-76
2021/01/24 02:11:14;;;;;;;11.27;10.80;;;4.00;99.90;;;;;;4932078;29;20457;-75
2021/01/24 02:13:53;;;;;;;11.80;11.40;;;4.10;99.90;;;;;;4932131;29;20459;-75
2021/01/24 02:16:20;;;;;;;13.60;13.10;;;4.10;99.90;;;;;;4932445;29;20528;-76
2021/01/24 02:18:50;;;;;;;14.30;13.80;;;4.00;99.90;;;;;;4914549;29;545056;-76
2021/01/24 02:21:28;;;;;;;14.60;14.00;;;4.00;99.90;;;;;;4932784;29;20460;-76
2021/01/24 02:23:58;;;;;;;14.47;13.87;;;4.00;99.90;;;;;;4932889;29;20462;-76
2021/01/24 02:26:33;;;;;;;14.10;13.60;;;4.00;99.90;;;;;;4933057;29;20465;-76
2021/01/24 02:29:17;;;;;;;13.80;13.37;;;4.10;99.90;;;;;;4932773;29;21011;-76
2021/01/24 02:31:46;;;;;;;12.57;11.97;;;4.10;99.90;;;;;;4932839;29;20835;-76
2021/01/24 02:34:14;;;;;;;12.70;12.20;;;4.00;99.90;;;;;;4932529;29;20450;-77
2021/01/24 02:36:41;;;;;;;12.17;11.70;;;4.00;99.90;;;;;;4932680;29;20534;-79
2021/01/24 02:39:08;;;;;;;12.20;11.80;;;4.10;99.90;;;;;;4932763;29;20454;-77
2021/01/24 02:41:34;;;;;;;12.50;12.10;;;4.10;99.90;;;;;;4932952;29;20457;-77
2021/01/24 02:44:02;;;;;;;11.37;11.07;;;4.00;99.90;;;;;;4932880;29;20480;-78
2021/01/24 02:46:30;;;;;;;12.20;11.80;;;4.00;99.90;;;;;;4932461;29;20483;-77
2021/01/24 02:48:57;;;;;;;12.30;11.90;;;4.00;99.90;;;;;;4932753;29;21103;-76
2021/01/24 02:51:24;;;;;;;11.43;11.13;;;4.00;99.90;;;;;;4932475;29;20947;-75
2021/01/24 02:53:52;;;;;;;11.50;11.20;;;4.00;99.90;;;;;;4932655;29;20458;-76
2021/01/24 02:56:21;;;;;;;11.27;10.97;;;3.90;99.90;;;;;;4932812;29;20467;-76
2021/01/24 02:58:48;;;;;;;11.10;10.80;;;3.90;99.90;;;;;;4932723;29;20829;-75
2021/01/24 03:01:14;;;;;;;11.10;10.80;;;3.80;99.90;;;;;;4932625;29;20516;-75
2021/01/24 03:03:40;;;;;;;10.63;10.33;;;3.80;99.90;;;;;;4932472;29;20454;-75
2021/01/24 03:06:09;;;;;;;11.40;11.10;;;3.80;99.90;;;;;;4932465;29;20458;-75
2021/01/24 03:08:35;;;;;;;11.20;10.90;;;3.70;99.90;;;;;;4932880;29;20843;-76
2021/01/24 03:11:03;;;;;;;11.33;10.97;;;3.80;99.90;;;;;;4932782;29;20814;-76
2021/01/24 03:13:37;;;;;;;10.20;9.90;;;3.70;99.90;;;;;;4932789;29;20457;-76
2021/01/24 03:16:04;;;;;;;10.80;10.50;;;3.60;99.90;;;;;;4932338;29;20575;-76
2021/01/24 03:18:34;;;;;;;9.57;9.27;;;3.50;99.90;;;;;;4932390;29;20481;-76
2021/01/24 03:21:01;;;;;;;10.70;10.30;;;3.40;99.90;;;;;;4932639;29;20475;-77
2021/01/24 03:23:29;;;;;;;10.60;10.30;;;3.50;99.90;;;;;;4932280;29;20541;-76
2021/01/24 03:25:57;;;;;;;10.27;9.97;;;3.50;99.90;;;;;;4932277;29;21027;-76
2021/01/24 03:28:24;;;;;;;10.20;9.90;;;3.60;99.90;;;;;;4931795;29;20489;-76
2021/01/24 03:30:50;;;;;;;10.20;9.90;;;3.70;99.90;;;;;;4932484;29;20887;-76
2021/01/24 03:33:17;;;;;;;9.93;9.50;;;3.70;99.90;;;;;;4934613;29;20460;-76
2021/01/24 03:35:44;;;;;;;10.40;10.10;;;3.70;99.90;;;;;;4935608;29;20823;-76
2021/01/24 03:38:10;;;;;;;10.43;10.13;;;3.70;99.90;;;;;;4935544;29;20448;-76
2021/01/24 03:40:37;;;;;;;10.17;9.77;;;3.60;99.90;;;;;;4935425;29;20455;-75
2021/01/24 03:43:03;;;;;;;10.40;10.00;;;3.60;99.90;;;;;;4935528;29;20473;-76
2021/01/24 03:45:29;;;;;;;10.10;9.70;;;3.50;99.90;;;;;;4935797;29;20472;-75
2021/01/24 03:47:55;;;;;;;10.83;10.40;;;3.40;99.90;;;;;;4935279;29;21002;-76
2021/01/24 03:50:22;;;;;;;10.57;10.17;;;3.30;99.90;;;;;;4935310;29;20529;-75
2021/01/24 03:52:48;;;;;;;9.90;9.60;;;3.30;99.90;;;;;;4935603;29;20470;-75
2021/01/24 03:55:15;;;;;;;10.50;10.10;;;3.20;99.90;;;;;;4935192;29;20461;-75
2021/01/24 03:57:42;;;;;;;10.10;9.70;;;3.10;99.90;;;;;;4935228;29;20795;-75
2021/01/24 04:00:09;;;;;;;10.47;10.07;;;3.10;99.90;;;;;;4935502;29;20524;-75
2021/01/24 04:02:35;;;;;;;10.10;9.63;;;3.00;99.90;;;;;;4935003;29;20457;-77
2021/01/24 04:05:02;;;;;;;10.47;9.97;;;2.90;99.90;;;;;;4935272;29;20457;-76
2021/01/24 04:07:28;;;;;;;9.70;9.20;;;2.90;99.90;;;;;;4935189;29;20485;-76
2021/01/24 04:09:54;;;;;;;9.10;8.80;;;2.90;99.90;;;;;;4935027;29;21219;-76
2021/01/24 04:12:20;;;;;;;10.37;9.87;;;3.00;99.90;;;;;;4935226;29;20515;-76
2021/01/24 04:14:47;;;;;;;10.13;9.63;;;3.00;99.90;;;;;;4934951;29;20528;-76
2021/01/24 04:17:13;;;;;;;9.70;9.30;;;3.10;99.90;;;;;;4934682;29;20484;-76
2021/01/24 04:19:39;;;;;;;10.27;9.87;;;3.20;99.90;;;;;;4934860;29;20458;-76
2021/01/24 04:22:06;;;;;;;9.83;9.43;;;3.30;99.90;;;;;;4934875;29;20462;-76
2021/01/24 04:24:32;;;;;;;10.70;10.10;;;3.30;99.90;;;;;;4934908;29;20866;-76
2021/01/24 04:26:58;;;;;;;10.77;10.27;;;3.40;99.90;;;;;;4934658;29;20465;-76
2021/01/24 04:29:24;;;;;;;10.37;9.87;;;3.40;99.90;;;;;;4934730;29;20612;-76
2021/01/24 04:31:51;;;;;;;10.87;10.47;;;3.40;99.90;;;;;;4934734;29;20871;-78
2021/01/24 04:34:17;;;;;;;10.50;10.10;;;3.30;99.90;;;;;;4934846;29;20461;-79
2021/01/24 04:36:43;;;;;;;9.57;9.17;;;3.20;99.90;;;;;;4934899;29;20484;-78
2021/01/24 04:39:10;;;;;;;10.13;9.53;;;3.00;99.90;;;;;;4934296;29;20453;-79
2021/01/24 04:41:37;;;;;;;9.73;9.23;;;2.80;99.90;;;;;;4934486;29;20458;-79
2021/01/24 04:44:04;;;;;;;9.70;9.40;;;2.60;99.90;;;;;;4934692;29;20769;-77
2021/01/24 04:46:31;;;;;;;10.17;9.57;;;2.60;99.90;;;;;;4934540;29;20509;-78
2021/01/24 04:48:59;;;;;;;10.27;9.77;;;2.50;99.90;;;;;;4934259;29;20498;-78
2021/01/24 04:51:26;;;;;;;10.93;10.13;;;2.50;99.90;;;;;;4934062;29;20503;-77
2021/01/24 04:53:52;;;;;;;10.27;9.80;;;2.40;99.90;;;;;;4934221;29;20972;-76
2021/01/24 04:56:19;;;;;;;10.50;10.10;;;2.40;99.90;;;;;;4934372;29;20449;-76
2021/01/24 04:58:45;;;;;;;9.30;8.90;;;2.30;99.90;;;;;;4934462;29;20455;-77
2021/01/24 05:01:16;;;;;;;10.57;10.07;;;2.30;99.90;;;;;;4933807;29;21001;-76
2021/01/24 05:03:42;;;;;;;10.37;9.93;;;2.40;99.90;;;;;;4934552;29;20461;-76
2021/01/24 05:06:10;;;;;;;9.67;9.23;;;2.40;99.90;;;;;;4934240;29;20468;-76
2021/01/24 05:08:36;;;;;;;10.87;10.20;;;2.40;99.90;;;;;;4933959;29;20513;-77
2021/01/24 05:11:04;;;;;;;9.93;9.33;;;2.50;99.90;;;;;;4933857;29;20457;-77
2021/01/24 05:13:31;;;;;;;9.87;9.40;;;2.50;99.90;;;;;;4934166;29;20460;-76
2021/01/24 05:15:57;;;;;;;9.63;9.23;;;2.60;99.90;;;;;;4933812;29;20488;-75
2021/01/24 05:18:23;;;;;;;9.00;8.60;;;2.70;99.90;;;;;;4933476;29;20544;-76
2021/01/24 05:20:52;;;;;;;9.10;8.73;;;2.70;99.90;;;;;;4933892;29;20504;-76
2021/01/24 05:23:21;;;;;;;10.00;9.40;;;2.70;99.90;;;;;;4934014;29;21042;-75
2021/01/24 05:25:47;;;;;;;9.80;9.20;;;2.70;99.90;;;;;;4934018;29;20516;-76
2021/01/24 05:28:18;;;;;;;9.90;9.30;;;2.60;99.90;;;;;;4933553;29;21006;-76
2021/01/24 05:30:44;;;;;;;9.70;9.30;;;2.70;99.90;;;;;;4933491;29;20948;-76
2021/01/24 05:33:11;;;;;;;9.57;9.17;;;2.70;99.90;;;;;;4933449;29;20975;-76
2021/01/24 05:35:47;;;;;;;9.70;9.30;;;2.60;99.90;;;;;;4933413;29;20463;-76
2021/01/24 05:38:22;;;;;;;9.73;9.33;;;2.60;99.90;;;;;;4933468;29;20630;-76
2021/01/24 05:40:49;;;;;;;10.07;9.53;;;2.60;99.90;;;;;;4933623;29;20485;-76
2021/01/24 05:43:16;;;;;;;10.50;10.00;;;2.60;99.90;;;;;;4933153;29;20972;-75
2021/01/24 05:45:43;;;;;;;10.10;9.40;;;2.70;99.90;;;;;;4933395;29;20524;-74
2021/01/24 05:48:09;;;;;;;10.07;9.67;;;2.70;99.90;;;;;;4933456;29;21230;-75
2021/01/24 05:50:35;;;;;;;9.67;9.23;;;2.80;99.90;;;;;;4933601;29;20461;-75
2021/01/24 05:53:05;;;;;;;10.10;9.53;;;2.80;99.90;;;;;;4924640;29;20462;-75
2021/01/24 05:55:33;;;;;;;10.70;10.20;;;2.70;99.90;;;;;;4923007;29;20970;-75
2021/01/24 05:58:14;;;;;;;9.73;9.33;;;2.50;99.90;;;;;;4924094;29;20452;-74
2021/01/24 06:00:42;;;;;;;10.67;10.10;;;2.40;99.90;;;;;;4923884;29;20452;-75
2021/01/24 06:03:08;;;;;;;10.20;9.60;;;2.20;99.90;;;;;;4922432;29;20528;-76
2021/01/24 06:05:34;;;;;;;9.93;9.33;;;2.20;99.90;;;;;;4930468;29;20455;-76
2021/01/24 06:08:01;;;;;;;10.03;9.53;;;2.30;99.90;;;;;;4933098;29;21088;-75
2021/01/24 06:10:27;;;;;;;9.93;9.33;;;2.30;99.90;;;;;;4933121;29;20527;-76
2021/01/24 06:12:58;;;;;;;11.70;11.10;;;2.40;99.90;;;;;;4932759;29;20455;-75
2021/01/24 06:15:27;;;;;;;10.20;9.70;;;2.50;99.90;;;;;;4932895;29;20468;-74
2021/01/24 06:17:56;;;;;;;10.20;9.80;;;2.60;99.90;;;;;;4932535;29;20509;-74
2021/01/24 06:20:24;;;;;;;10.83;10.33;;;2.60;99.90;;;;;;4924155;29;20463;-74
2021/01/24 06:22:56;;;;;;;11.07;10.47;;;2.60;99.90;;;;;;4923132;29;20503;-74
2021/01/24 06:25:26;;;;;;;10.50;10.10;;;2.50;99.90;;;;;;4923964;29;20539;-74
2021/01/24 06:27:57;;;;;;;11.03;10.60;;;2.40;99.90;;;;;;4922696;29;20500;-75
2021/01/24 06:30:26;;;;;;;11.20;10.70;;;2.30;99.90;;;;;;4921478;29;20454;-75
2021/01/24 06:32:53;;;;;;;12.13;11.53;;;2.30;99.90;;;;;;4924699;29;20475;-74
2021/01/24 06:35:22;;;;;;;11.33;10.63;;;2.30;99.90;;;;;;4930473;29;20463;-74
2021/01/24 06:37:50;;;;;;;10.13;9.73;;;2.40;99.90;;;;;;4932500;29;20491;-74
2021/01/24 06:40:23;;;;;;;11.10;10.60;;;2.30;99.90;;;;;;4925073;29;20465;-76
2021/01/24 06:42:56;;;;;;;10.40;9.90;;;2.30;99.90;;;;;;4913899;29;20458;-74
2021/01/24 06:45:40;;;;;;;10.70;10.20;;;2.30;99.90;;;;;;4913921;29;20454;-74
2021/01/24 06:48:07;;;;;;;11.00;10.40;;;2.30;99.90;;;;;;4913723;29;20501;-73
2021/01/24 06:50:38;;;;;;;11.27;10.67;;;2.30;99.90;;;;;;4913935;29;20490;-72
2021/01/24 06:53:05;;;;;;;12.40;11.63;;;2.10;99.90;;;;;;4913776;29;20512;-75
2021/01/24 06:55:33;;;;;;;11.40;10.80;;;2.00;99.90;;;;;;4918930;29;20451;-75
2021/01/24 06:58:23;;;;;;;10.90;10.40;;;2.00;99.90;;;;;;4921062;29;20535;-75
2021/01/24 07:00:49;;;;;;;11.17;10.57;;;2.00;99.90;;;;;;4918964;29;20450;-74
2021/01/24 07:03:17;;;;;;;11.77;10.80;;;1.90;99.90;;;;;;4921791;29;20956;-75
2021/01/24 07:05:44;;;;;;;11.10;10.40;;;1.80;99.90;;;;;;4922472;29;20504;-75
2021/01/24 07:08:29;;;;;;;11.50;10.80;;;1.80;99.90;;;;;;4923169;29;20488;-76
2021/01/24 07:10:55;;;;;;;9.57;9.17;;;1.70;99.90;;;;;;4923646;29;20877;-77
2021/01/24 07:13:32;;;;;;;10.73;10.20;;;1.80;99.90;;;;;;4924498;29;20456;-74
2021/01/24 07:16:00;;;;;;;10.40;9.87;;;1.80;99.90;;;;;;4924338;29;20474;-76
2021/01/24 07:18:40;;;;;;;10.47;9.87;;;1.80;99.90;;;;;;4923979;29;20482;-77
2021/01/24 07:21:07;;;;;;;11.50;10.80;;;2.10;99.90;;;;;;4923831;29;20989;-76
2021/01/24 07:23:34;;;;;;;10.87;10.27;;;2.20;99.90;;;;;;4925420;29;20516;-75
2021/01/24 07:26:02;;;;;;;10.90;10.30;;;2.30;99.90;;;;;;4925693;29;20449;-75
2021/01/24 07:28:29;;;;;;;11.30;10.70;;;2.30;99.90;;;;;;4921527;29;20571;-74
2021/01/24 07:31:00;;;;;;;11.80;11.30;;;2.20;99.90;;;;;;4924610;29;20445;-75
2021/01/24 07:33:30;;;;;;;12.27;11.47;;;2.20;99.90;;;;;;4925855;29;20455;-76
2021/01/24 07:35:57;;;;;;;11.20;10.70;;;2.20;99.90;;;;;;4924311;29;20828;-76
2021/01/24 07:38:25;;;;;;;11.47;10.80;;;2.10;99.90;;;;;;4924460;29;20456;-75
2021/01/24 07:40:53;;;;;;;10.73;10.03;;;2.20;99.90;;;;;;4925419;29;20464;-75
2021/01/24 07:43:19;;;;;;;10.30;9.83;;;2.20;99.90;;;;;;4924663;29;20446;-75
2021/01/24 07:45:46;;;;;;;10.30;9.90;;;2.10;99.90;;;;;;4924153;29;20459;-76
2021/01/24 07:48:14;;;;;;;10.33;9.83;;;2.10;99.90;;;;;;4925596;29;20491;-76
2021/01/24 07:50:41;;;;;;;10.70;10.20;;;2.10;99.90;;;;;;4924427;29;20823;-76
2021/01/24 07:53:08;;;;;;;10.60;10.03;;;2.10;99.90;;;;;;4923656;29;20453;-76
2021/01/24 07:55:36;;;;;;;10.97;10.47;;;2.10;99.90;;;;;;4925316;29;20446;-77
2021/01/24 07:58:03;;;;;;;10.60;10.10;;;2.10;99.90;;;;;;4924985;29;20453;-76
2021/01/24 08:00:29;;;;;;;10.10;9.50;;;2.30;99.90;;;;;;4923313;29;20466;-75
2021/01/24 08:02:56;;;;;;;9.47;9.07;;;2.70;99.90;;;;;;4925193;29;20855;-75
2021/01/24 08:05:23;;;;;;;9.73;9.23;;;3.30;99.90;;;;;;4922907;29;20458;-73
2021/01/24 08:07:49;;;;;;;9.90;9.50;;;3.90;99.90;;;;;;4915827;29;20496;-75
2021/01/24 08:10:16;;;;;;;10.63;10.13;;;4.70;99.90;;;;;;4916032;29;20497;-76
2021/01/24 08:12:42;;;;;;;11.00;10.50;;;5.20;99.90;;;;;;4916039;29;20461;-75
2021/01/24 08:15:09;;;;;;;10.20;9.80;;;5.70;99.90;;;;;;4915863;29;20461;-74
2021/01/24 08:17:36;;;;;;;11.17;10.60;;;6.10;99.90;;;;;;4915548;29;20497;-74
2021/01/24 08:20:06;;;;;;;10.83;10.23;;;6.30;99.90;;;;;;4915831;29;20481;-74
2021/01/24 08:22:33;;;;;;;10.30;9.73;;;6.80;99.60;;;;;;4916197;29;20501;-75
2021/01/24 08:25:01;;;;;;;10.93;10.43;;;6.80;99.30;;;;;;4915875;29;20463;-75
2021/01/24 08:27:27;;;;;;;11.90;11.40;;;6.80;98.70;;;;;;4915485;29;20529;-75
2021/01/24 08:29:54;;;;;;;11.13;10.73;;;6.70;98.70;;;;;;4915567;29;20461;-74
2021/01/24 08:32:21;;;;;;;10.80;10.30;;;6.50;98.80;;;;;;4915551;29;20457;-73
2021/01/24 08:34:47;;;;;;;10.20;9.77;;;6.00;99.20;;;;;;4916178;29;20460;-73
2021/01/24 08:37:14;;;;;;;10.93;10.33;;;5.30;99.90;;;;;;4915692;29;21046;-73
2021/01/24 08:39:41;;;;;;;10.50;10.00;;;5.10;99.90;;;;;;4915780;29;20514;-77
2021/01/24 08:42:07;;;;;;;11.23;10.73;;;6.00;99.90;;;;;;4915350;29;20813;-74
2021/01/24 08:44:33;;;;;;;10.73;10.23;;;6.20;99.90;;;;;;4915751;29;20461;-74
2021/01/24 08:47:04;;;;;;;10.67;10.20;;;6.70;99.40;;;;;;4915474;29;20523;-75
2021/01/24 08:49:30;;;;;;;10.90;10.50;;;7.40;97.80;;;;;;4915234;29;20961;-74
2021/01/24 08:51:57;;;;;;;10.40;10.00;;;8.20;96.00;;;;;;4915421;29;20505;-74
2021/01/24 08:54:26;;;;;;;10.90;10.40;;;8.50;95.00;;;;;;4915362;29;20457;-75
2021/01/24 08:57:08;;;;;;;12.17;11.57;;;9.60;95.10;;;;;;4915127;29;20458;-74
2021/01/24 08:59:35;;;;;;;10.43;10.03;;;10.90;92.00;;;;;;4915280;29;20454;-74
2021/01/24 09:02:02;;;;;;;11.50;11.00;;;11.50;89.50;;;;;;4915197;29;20462;-74
2021/01/24 09:04:29;;;;;;;11.00;10.50;;;10.50;90.30;;;;;;4915178;29;20459;-74
2021/01/24 09:07:14;;;;;;;10.07;9.67;;;8.80;91.40;;;;;;4915172;29;20458;-74
2021/01/24 09:09:43;;;;;;;10.00;9.60;;;7.50;94.20;;;;;;4914854;29;20502;-74
2021/01/24 09:12:12;;;;;;;10.37;9.67;;;6.60;96.70;;;;;;4914720;29;20473;-74
2021/01/24 09:14:38;;;;;;;9.30;8.93;;;6.40;98.00;;;;;;4915165;29;20459;-74
2021/01/24 09:17:09;;;;;;;10.00;9.57;;;5.90;98.50;;;;;;4914857;29;21188;-74
2021/01/24 09:19:38;;;;;;;9.20;8.80;;;5.50;99.90;;;;;;4914947;29;20484;-75
2021/01/24 09:22:06;;;;;;;9.60;9.20;;;5.10;99.90;;;;;;4915137;29;20818;-75
2021/01/24 09:24:32;;;;;;;9.50;8.80;;;5.10;99.90;;;;;;4915058;29;20974;-75
2021/01/24 09:26:58;;;;;;;9.47;9.07;;;5.00;99.90;;;;;;4914769;29;20459;-75
2021/01/24 09:29:25;;;;;;;10.03;9.47;;;4.80;99.90;;;;;;4914225;29;20493;-75
2021/01/24 09:31:51;;;;;;;9.80;9.10;;;4.80;99.90;;;;;;4914429;29;20980;-75
2021/01/24 09:34:18;;;;;;;9.30;8.90;;;4.80;99.90;;;;;;4914941;29;20797;-75
2021/01/24 09:36:44;;;;;;;9.50;8.97;;;4.90;99.90;;;;;;4915029;29;20461;-74
2021/01/24 09:39:10;;;;;;;9.10;8.80;;;4.90;99.90;;;;;;4914842;29;20971;-74
2021/01/24 09:41:36;;;;;;;9.13;8.70;;;5.00;99.90;;;;;;4914342;29;20457;-74
2021/01/24 09:44:03;;;;;;;10.13;9.43;;;5.00;99.90;;;;;;4914560;29;20461;-74
2021/01/24 09:46:30;;;;;;;10.00;9.50;;;4.80;99.90;;;;;;4914528;29;20465;-74
2021/01/24 09:48:57;;;;;;;9.37;8.97;;;4.80;99.90;;;;;;4914371;29;20868;-74
2021/01/24 09:51:23;;;;;;;9.47;8.77;;;4.60;99.90;;;;;;4914700;29;20464;-74
2021/01/24 09:53:50;;;;;;;9.10;8.70;;;4.60;99.90;;;;;;4914556;29;20459;-74
2021/01/24 09:56:17;;;;;;;10.60;10.10;;;4.50;99.90;;;;;;4914419;29;20457;-72
2021/01/24 09:58:43;;;;;;;9.93;9.43;;;4.50;99.90;;;;;;4914262;29;20458;-71
2021/01/24 10:01:09;;;;;;;10.47;9.73;;;4.70;99.90;;;;;;4914075;29;20529;-73
2021/01/24 10:03:36;;;;;;;10.63;10.00;;;4.70;99.90;;;;;;4920618;29;20983;-71
2021/01/24 10:06:03;;;;;;;10.77;10.17;;;4.60;99.90;;;;;;4933029;29;20488;-71
2021/01/24 10:08:29;;;;;;;10.60;9.90;;;4.90;99.90;;;;;;4932625;29;21002;-71
2021/01/24 10:10:55;;;;;;;10.23;9.80;;;5.20;99.90;;;;;;4932817;29;20464;-71
2021/01/24 10:13:22;;;;;;;9.60;9.10;;;5.40;99.90;;;;;;4931541;29;20947;-73
2021/01/24 10:15:49;;;;;;;11.13;10.50;;;5.40;99.90;;;;;;4932956;29;20237;-75
2021/01/24 10:18:16;;;;;;;10.30;9.90;;;5.60;99.90;;;;;;4932592;29;20513;-71
2021/01/24 10:20:43;;;;;;;10.70;10.10;;;5.70;99.90;;;;;;4932711;29;20464;-72
2021/01/24 10:23:09;;;;;;;10.37;9.87;;;5.60;99.90;;;;;;4932413;29;20979;-73
2021/01/24 10:25:35;;;;;;;11.43;10.53;;;5.70;99.90;;;;;;4933041;29;20456;-74
2021/01/24 10:28:02;;;;;;;11.07;10.47;;;5.30;99.90;;;;;;4932481;29;20550;-75
2021/01/24 10:30:28;;;;;;;10.17;9.77;;;5.10;99.90;;;;;;4931661;29;20455;-74
2021/01/24 10:32:54;;;;;;;10.27;9.77;;;5.00;99.90;;;;;;4932074;29;20461;-75
2021/01/24 10:35:21;;;;;;;10.50;10.00;;;5.10;99.90;;;;;;4932125;29;20951;-75
2021/01/24 10:37:48;;;;;;;11.00;10.20;;;5.40;99.90;;;;;;4932212;29;20463;-75
2021/01/24 10:40:15;;;;;;;10.03;9.57;;;5.30;99.90;;;;;;4932100;29;20457;-75
2021/01/24 10:42:41;;;;;;;9.90;9.40;;;5.50;99.90;;;;;;4935049;29;20456;-75
2021/01/24 10:45:09;;;;;;;9.90;9.40;;;5.40;99.90;;;;;;4935849;29;20460;-75
2021/01/24 10:47:35;;;;;;;10.83;10.23;;;5.40;99.90;;;;;;4935712;29;21021;-75
2021/01/24 10:50:02;;;;;;;9.80;9.40;;;5.80;99.90;;;;;;4935942;29;20872;-76
2021/01/24 10:52:28;;;;;;;9.63;9.23;;;6.20;99.90;;;;;;4935672;29;20790;-76
2021/01/24 10:54:55;;;;;;;10.50;10.00;;;6.50;99.90;;;;;;4935828;29;20528;-76
2021/01/24 10:57:21;;;;;;;10.43;9.93;;;7.00;99.60;;;;;;4935385;29;20453;-76
2021/01/24 10:59:47;;;;;;;9.80;9.40;;;7.00;98.20;;;;;;4935477;29;20453;-77
2021/01/24 11:02:14;;;;;;;10.17;9.77;;;7.40;97.30;;;;;;4935511;29;20453;-76
2021/01/24 11:04:40;;;;;;;10.03;9.63;;;7.70;96.60;;;;;;4935568;29;20820;-76
2021/01/24 11:07:06;;;;;;;10.87;10.37;;;8.00;96.10;;;;;;4935699;29;20879;-76
2021/01/24 11:09:32;;;;;;;10.00;9.70;;;8.40;94.50;;;;;;4935516;29;20508;-75
2021/01/24 11:12:00;;;;;;;9.77;9.33;;;8.30;94.00;;;;;;4935502;29;20461;-75
2021/01/24 11:14:26;;;;;;;10.10;9.70;;;8.50;93.30;;;;;;4935255;29;20464;-76
2021/01/24 11:16:52;;;;;;;10.17;9.77;;;8.50;92.80;;;;;;4935069;29;20469;-76
2021/01/24 11:19:18;;;;;;;10.07;9.67;;;8.40;92.40;;;;;;4935677;29;20459;-76
2021/01/24 11:21:45;;;;;;;9.87;9.47;;;8.40;92.90;;;;;;4935447;29;20449;-76
2021/01/24 11:24:11;;;;;;;9.80;9.40;;;8.30;92.40;;;;;;4935284;29;20537;-76
2021/01/24 11:26:37;;;;;;;9.10;8.80;;;8.00;92.50;;;;;;4934851;29;20458;-76
2021/01/24 11:29:04;;;;;;;10.40;10.00;;;7.50;93.00;;;;;;4935192;29;21019;-75
2021/01/24 11:31:31;;;;;;;9.70;9.37;;;6.90;93.60;;;;;;4935122;29;20449;-78
2021/01/24 11:33:57;;;;;;;10.27;9.57;;;6.60;94.60;;;;;;4935242;29;20926;-78
2021/01/24 11:36:23;;;;;;;10.23;9.80;;;6.40;95.30;;;;;;4934948;29;20516;-77
2021/01/24 11:38:49;;;;;;;9.30;8.90;;;6.30;95.20;;;;;;4935124;29;20525;-76
2021/01/24 11:41:15;;;;;;;9.70;9.40;;;5.90;95.10;;;;;;4935121;29;20460;-76
2021/01/24 11:43:41;;;;;;;9.37;8.77;;;5.90;96.30;;;;;;4934582;29;20897;-76
2021/01/24 11:46:08;;;;;;;9.70;9.40;;;6.00;95.90;;;;;;4934722;29;20467;-76
2021/01/24 11:48:35;;;;;;;9.60;9.20;;;6.00;96.30;;;;;;4934762;29;20492;-76
2021/01/24 11:51:01;;;;;;;9.77;9.27;;;6.00;95.70;;;;;;4934849;29;20890;-76
2021/01/24 11:53:27;;;;;;;9.33;8.93;;;6.30;95.90;;;;;;4933898;29;20465;-77
2021/01/24 11:55:53;;;;;;;9.20;8.90;;;6.30;95.10;;;;;;4934322;29;20963;-76
2021/01/24 11:58:19;;;;;;;9.17;8.77;;;6.30;95.30;;;;;;4934615;29;20480;-76
2021/01/24 12:00:46;;;;;;;9.43;8.93;;;6.40;96.40;;;;;;4934545;29;20465;-76
2021/01/24 12:03:13;;;;;;;9.03;8.63;;;6.40;95.60;;;;;;4934448;29;20525;-76
2021/01/24 12:05:39;;;;;;;10.00;9.50;;;6.50;95.30;;;;;;4934416;29;20457;-76
2021/01/24 12:08:06;;;;;;;9.97;9.40;;;6.40;95.50;;;;;;4934455;29;20870;-76
2021/01/24 12:10:33;;;;;;;9.17;8.50;;;6.50;95.10;;;;;;4934122;29;20456;-76
2021/01/24 12:12:59;;;;;;;9.03;8.60;;;6.30;95.30;;;;;;4934504;29;20461;-76
2021/01/24 12:15:25;;;;;;;10.63;9.10;;;6.30;95.50;;;;;;4934018;29;20485;-77
2021/01/24 12:17:51;;;;;;;9.73;9.13;;;5.90;95.60;;;;;;4934128;29;20491;-76
2021/01/24 12:20:19;;;;;;;9.63;9.03;;;5.80;96.10;;;;;;4934398;29;20464;-76
2021/01/24 12:22:45;;;;;;;10.07;9.70;;;5.80;96.20;;;;;;4933941;29;20450;-76
2021/01/24 12:25:12;;;;;;;10.17;9.70;;;5.60;96.40;;;;;;4934172;29;20464;-76
2021/01/24 12:27:38;;;;;;;11.03;10.43;;;5.60;96.60;;;;;;4933807;29;20503;-76
2021/01/24 12:30:05;;;;;;;9.80;9.40;;;5.50;97.00;;;;;;4934194;29;20857;-76
2021/01/24 12:32:32;;;;;;;10.40;9.90;;;5.60;96.50;;;;;;4934169;29;20487;-76
2021/01/24 12:34:58;;;;;;;11.20;10.57;;;5.90;97.00;;;;;;4933826;29;20463;-76
2021/01/24 12:37:25;;;;;;;10.60;10.10;;;5.80;96.00;;;;;;4933704;29;21058;-76
2021/01/24 12:39:51;;;;;;;9.90;9.50;;;5.70;96.30;;;;;;4933996;29;20456;-76
2021/01/24 12:42:17;;;;;;;10.43;9.83;;;6.00;96.40;;;;;;4933952;29;20480;-76
2021/01/24 12:44:44;;;;;;;9.27;8.77;;;6.20;96.50;;;;;;4933510;29;20456;-76